sensor_id;sensor_type;location;lat;lon;timestamp;temperature;humidity
3037;DHT22;1528;52.550;13.408;2024-01-30T00:01:43;6.00;23.20
3037;DHT22;1528;52.550;13.408;2024-01-30T00:04:29;6.00;23.70
3037;DHT22;1528;52.550;13.408;2024-01-30T00:07:15;5.90;23.30
3037;DHT22;1528;52.550;13.408;2024-01-30T00:10:00;5.90;23.30
3037;DHT22;1528;52.550;13.408;2024-01-30T00:12:46;5.90;23.40
3037;DHT22;1528;52.550;13.408;2024-01-30T00:15:32;5.90;23.40
3037;DHT22;1528;52.550;13.408;2024-01-30T00:18:19;5.80;23.40
3037;DHT22;1528;52.550;13.408;2024-01-30T00:21:04;5.80;23.40
3037;DHT22;1528;52.550;13.408;2024-01-30T00:23:50;5.80;23.50
3037;DHT22;1528;52.550;13.408;2024-01-30T00:26:35;5.80;23.60
3037;DHT22;1528;52.550;13.408;2024-01-30T00:29:21;5.80;23.60
3037;DHT22;1528;52.550;13.408;2024-01-30T00:32:07;5.80;23.60
3037;DHT22;1528;52.550;13.408;2024-01-30T00:34:53;5.70;23.70
3037;DHT22;1528;52.550;13.408;2024-01-30T00:37:39;5.70;23.70
3037;DHT22;1528;52.550;13.408;2024-01-30T00:40:24;5.70;23.80
3037;DHT22;1528;52.550;13.408;2024-01-30T00:43:10;5.70;23.70
3037;DHT22;1528;52.550;13.408;2024-01-30T00:45:56;5.70;23.80
3037;DHT22;1528;52.550;13.408;2024-01-30T00:48:42;5.60;23.80
3037;DHT22;1528;52.550;13.408;2024-01-30T00:51:29;5.60;23.80
3037;DHT22;1528;52.550;13.408;2024-01-30T00:54:14;5.60;24.50
3037;DHT22;1528;52.550;13.408;2024-01-30T00:57:00;5.60;24.10
3037;DHT22;1528;52.550;13.408;2024-01-30T00:59:46;5.50;24.00
3037;DHT22;1528;52.550;13.408;2024-01-30T01:02:31;5.50;24.00
3037;DHT22;1528;52.550;13.408;2024-01-30T01:05:17;5.50;24.00
3037;DHT22;1528;52.550;13.408;2024-01-30T01:08:04;5.50;24.10
3037;DHT22;1528;52.550;13.408;2024-01-30T01:10:50;5.50;24.20
3037;DHT22;1528;52.550;13.408;2024-01-30T01:13:36;5.50;24.20
3037;DHT22;1528;52.550;13.408;2024-01-30T01:16:21;5.50;24.30
3037;DHT22;1528;52.550;13.408;2024-01-30T01:19:07;5.50;24.20
3037;DHT22;1528;52.550;13.408;2024-01-30T01:21:53;5.50;24.80
3037;DHT22;1528;52.550;13.408;2024-01-30T01:24:40;5.50;24.30
3037;DHT22;1528;52.550;13.408;2024-01-30T01:27:25;5.40;24.30
3037;DHT22;1528;52.550;13.408;2024-01-30T01:30:11;5.40;24.30
3037;DHT22;1528;52.550;13.408;2024-01-30T01:33:03;5.40;24.30
3037;DHT22;1528;52.550;13.408;2024-01-30T01:35:48;5.40;24.30
3037;DHT22;1528;52.550;13.408;2024-01-30T01:38:34;5.40;24.40
3037;DHT22;1528;52.550;13.408;2024-01-30T01:41:21;5.40;24.40
3037;DHT22;1528;52.550;13.408;2024-01-30T01:44:07;5.40;24.50
3037;DHT22;1528;52.550;13.408;2024-01-30T01:46:54;5.30;24.40
3037;DHT22;1528;52.550;13.408;2024-01-30T01:49:39;5.30;24.50
3037;DHT22;1528;52.550;13.408;2024-01-30T01:52:25;5.30;24.60
3037;DHT22;1528;52.550;13.408;2024-01-30T01:55:11;5.30;24.60
3037;DHT22;1528;52.550;13.408;2024-01-30T01:57:59;5.30;24.60
3037;DHT22;1528;52.550;13.408;2024-01-30T02:00:45;5.30;24.60
3037;DHT22;1528;52.550;13.408;2024-01-30T02:03:30;5.30;24.60
3037;DHT22;1528;52.550;13.408;2024-01-30T02:06:16;5.30;25.30
3037;DHT22;1528;52.550;13.408;2024-01-30T02:09:02;5.30;24.80
3037;DHT22;1528;52.550;13.408;2024-01-30T02:11:48;5.20;24.90
3037;DHT22;1528;52.550;13.408;2024-01-30T02:14:44;5.20;24.90
3037;DHT22;1528;52.550;13.408;2024-01-30T02:17:30;5.20;24.90
3037;DHT22;1528;52.550;13.408;2024-01-30T02:20:15;5.20;25.00
3037;DHT22;1528;52.550;13.408;2024-01-30T02:23:02;5.20;24.90
3037;DHT22;1528;52.550;13.408;2024-01-30T02:25:48;5.20;25.00
3037;DHT22;1528;52.550;13.408;2024-01-30T02:28:33;5.20;25.00
3037;DHT22;1528;52.550;13.408;2024-01-30T02:31:19;5.20;25.10
3037;DHT22;1528;52.550;13.408;2024-01-30T02:34:05;5.20;25.10
3037;DHT22;1528;52.550;13.408;2024-01-30T02:36:50;5.20;25.10
3037;DHT22;1528;52.550;13.408;2024-01-30T02:39:37;5.20;25.10
3037;DHT22;1528;52.550;13.408;2024-01-30T02:42:23;5.20;25.10
3037;DHT22;1528;52.550;13.408;2024-01-30T02:45:10;5.20;25.20
3037;DHT22;1528;52.550;13.408;2024-01-30T02:47:55;5.20;25.20
3037;DHT22;1528;52.550;13.408;2024-01-30T02:50:41;5.20;25.30
3037;DHT22;1528;52.550;13.408;2024-01-30T02:53:27;5.20;25.30
3037;DHT22;1528;52.550;13.408;2024-01-30T02:56:14;5.20;25.30
3037;DHT22;1528;52.550;13.408;2024-01-30T02:59:00;5.20;25.40
3037;DHT22;1528;52.550;13.408;2024-01-30T03:01:46;5.20;25.40
3037;DHT22;1528;52.550;13.408;2024-01-30T03:04:32;5.20;25.40
3037;DHT22;1528;52.550;13.408;2024-01-30T03:07:17;5.10;25.40
3037;DHT22;1528;52.550;13.408;2024-01-30T03:10:04;5.10;25.50
3037;DHT22;1528;52.550;13.408;2024-01-30T03:12:52;5.10;25.50
3037;DHT22;1528;52.550;13.408;2024-01-30T03:15:37;5.10;25.50
3037;DHT22;1528;52.550;13.408;2024-01-30T03:18:23;5.10;25.50
3037;DHT22;1528;52.550;13.408;2024-01-30T03:21:09;5.10;25.60
3037;DHT22;1528;52.550;13.408;2024-01-30T03:23:54;5.00;25.70
3037;DHT22;1528;52.550;13.408;2024-01-30T03:26:40;5.00;25.90
3037;DHT22;1528;52.550;13.408;2024-01-30T03:29:27;4.90;25.90
3037;DHT22;1528;52.550;13.408;2024-01-30T03:32:12;5.00;26.00
3037;DHT22;1528;52.550;13.408;2024-01-30T03:34:58;4.90;26.00
3037;DHT22;1528;52.550;13.408;2024-01-30T03:37:43;4.90;26.10
3037;DHT22;1528;52.550;13.408;2024-01-30T03:40:29;4.90;26.10
3037;DHT22;1528;52.550;13.408;2024-01-30T03:43:15;4.90;26.20
3037;DHT22;1528;52.550;13.408;2024-01-30T03:46:02;4.90;26.10
3037;DHT22;1528;52.550;13.408;2024-01-30T03:48:48;4.90;26.30
3037;DHT22;1528;52.550;13.408;2024-01-30T03:51:34;4.90;26.30
3037;DHT22;1528;52.550;13.408;2024-01-30T03:54:19;4.90;26.40
3037;DHT22;1528;52.550;13.408;2024-01-30T03:57:05;4.90;27.00
3037;DHT22;1528;52.550;13.408;2024-01-30T03:59:51;4.90;26.50
3037;DHT22;1528;52.550;13.408;2024-01-30T04:02:38;4.90;26.50
3037;DHT22;1528;52.550;13.408;2024-01-30T04:05:24;4.90;26.60
3037;DHT22;1528;52.550;13.408;2024-01-30T04:08:10;4.80;26.60
3037;DHT22;1528;52.550;13.408;2024-01-30T04:10:56;4.80;26.60
3037;DHT22;1528;52.550;13.408;2024-01-30T04:13:41;4.80;26.60
3037;DHT22;1528;52.550;13.408;2024-01-30T04:16:27;4.90;26.80
3037;DHT22;1528;52.550;13.408;2024-01-30T04:19:14;4.80;26.70
3037;DHT22;1528;52.550;13.408;2024-01-30T04:22:00;4.80;26.70
3037;DHT22;1528;52.550;13.408;2024-01-30T04:24:45;4.90;26.70
3037;DHT22;1528;52.550;13.408;2024-01-30T04:27:31;4.90;26.80
3037;DHT22;1528;52.550;13.408;2024-01-30T04:30:17;4.80;26.70
3037;DHT22;1528;52.550;13.408;2024-01-30T04:33:03;4.80;27.00
3037;DHT22;1528;52.550;13.408;2024-01-30T04:35:50;4.80;26.90
3037;DHT22;1528;52.550;13.408;2024-01-30T04:38:36;4.80;27.10
3037;DHT22;1528;52.550;13.408;2024-01-30T04:41:21;4.80;27.00
3037;DHT22;1528;52.550;13.408;2024-01-30T04:44:07;4.80;27.10
3037;DHT22;1528;52.550;13.408;2024-01-30T04:46:52;4.80;27.10
3037;DHT22;1528;52.550;13.408;2024-01-30T04:49:38;4.80;27.10
3037;DHT22;1528;52.550;13.408;2024-01-30T04:52:26;4.80;27.10
3037;DHT22;1528;52.550;13.408;2024-01-30T04:55:12;4.80;27.10
3037;DHT22;1528;52.550;13.408;2024-01-30T04:57:57;4.80;27.00
3037;DHT22;1528;52.550;13.408;2024-01-30T05:00:43;4.80;27.10
3037;DHT22;1528;52.550;13.408;2024-01-30T05:03:33;4.90;27.10
3037;DHT22;1528;52.550;13.408;2024-01-30T05:06:24;4.90;27.10
3037;DHT22;1528;52.550;13.408;2024-01-30T05:09:12;4.90;27.10
3037;DHT22;1528;52.550;13.408;2024-01-30T05:11:57;5.00;27.20
3037;DHT22;1528;52.550;13.408;2024-01-30T05:14:43;4.90;27.20
3037;DHT22;1528;52.550;13.408;2024-01-30T05:17:28;4.80;27.10
3037;DHT22;1528;52.550;13.408;2024-01-30T05:20:14;4.80;27.20
3037;DHT22;1528;52.550;13.408;2024-01-30T05:22:59;4.80;27.20
3037;DHT22;1528;52.550;13.408;2024-01-30T05:25:46;4.80;27.20
3037;DHT22;1528;52.550;13.408;2024-01-30T05:28:32;4.80;27.30
3037;DHT22;1528;52.550;13.408;2024-01-30T05:31:17;4.70;27.30
3037;DHT22;1528;52.550;13.408;2024-01-30T05:34:03;4.80;27.40
3037;DHT22;1528;52.550;13.408;2024-01-30T05:36:50;4.70;27.80
3037;DHT22;1528;52.550;13.408;2024-01-30T05:39:36;4.80;27.40
3037;DHT22;1528;52.550;13.408;2024-01-30T05:42:23;4.80;27.40
3037;DHT22;1528;52.550;13.408;2024-01-30T05:45:09;4.70;27.30
3037;DHT22;1528;52.550;13.408;2024-01-30T05:47:54;4.70;27.40
3037;DHT22;1528;52.550;13.408;2024-01-30T05:50:40;4.70;27.40
3037;DHT22;1528;52.550;13.408;2024-01-30T05:53:25;4.80;27.40
3037;DHT22;1528;52.550;13.408;2024-01-30T05:56:11;4.70;27.40
3037;DHT22;1528;52.550;13.408;2024-01-30T05:58:58;4.70;27.40
3037;DHT22;1528;52.550;13.408;2024-01-30T06:01:46;4.80;27.90
3037;DHT22;1528;52.550;13.408;2024-01-30T06:04:31;4.80;27.40
3037;DHT22;1528;52.550;13.408;2024-01-30T06:07:17;4.80;27.40
3037;DHT22;1528;52.550;13.408;2024-01-30T06:10:03;4.80;27.20
3037;DHT22;1528;52.550;13.408;2024-01-30T06:12:49;4.80;27.30
3037;DHT22;1528;52.550;13.408;2024-01-30T06:15:36;4.80;27.30
3037;DHT22;1528;52.550;13.408;2024-01-30T06:18:21;4.80;27.30
3037;DHT22;1528;52.550;13.408;2024-01-30T06:21:07;4.80;27.20
3037;DHT22;1528;52.550;13.408;2024-01-30T06:23:53;4.80;27.20
3037;DHT22;1528;52.550;13.408;2024-01-30T06:26:39;4.80;27.20
3037;DHT22;1528;52.550;13.408;2024-01-30T06:29:24;4.80;27.20
3037;DHT22;1528;52.550;13.408;2024-01-30T06:32:12;4.80;27.50
3037;DHT22;1528;52.550;13.408;2024-01-30T06:34:57;4.80;27.80
3037;DHT22;1528;52.550;13.408;2024-01-30T06:37:43;4.80;27.30
3037;DHT22;1528;52.550;13.408;2024-01-30T06:40:29;4.90;27.80
3037;DHT22;1528;52.550;13.408;2024-01-30T06:43:14;4.80;27.10
3037;DHT22;1528;52.550;13.408;2024-01-30T06:46:00;4.90;27.20
3037;DHT22;1528;52.550;13.408;2024-01-30T06:48:47;4.90;27.20
3037;DHT22;1528;52.550;13.408;2024-01-30T06:51:32;4.90;27.20
3037;DHT22;1528;52.550;13.408;2024-01-30T06:54:18;4.90;27.20
3037;DHT22;1528;52.550;13.408;2024-01-30T06:57:04;4.90;27.10
3037;DHT22;1528;52.550;13.408;2024-01-30T06:59:53;4.90;27.20
3037;DHT22;1528;52.550;13.408;2024-01-30T07:02:40;4.90;27.10
3037;DHT22;1528;52.550;13.408;2024-01-30T07:05:27;4.90;27.10
3037;DHT22;1528;52.550;13.408;2024-01-30T07:08:12;4.90;27.10
3037;DHT22;1528;52.550;13.408;2024-01-30T07:10:58;5.00;27.20
3037;DHT22;1528;52.550;13.408;2024-01-30T07:13:44;5.20;27.30
3037;DHT22;1528;52.550;13.408;2024-01-30T07:16:29;5.00;27.20
3037;DHT22;1528;52.550;13.408;2024-01-30T07:19:15;5.10;27.10
3037;DHT22;1528;52.550;13.408;2024-01-30T07:22:02;5.10;27.00
3037;DHT22;1528;52.550;13.408;2024-01-30T07:24:48;5.20;27.00
3037;DHT22;1528;52.550;13.408;2024-01-30T07:27:36;5.20;26.90
3037;DHT22;1528;52.550;13.408;2024-01-30T07:30:22;5.30;26.90
3037;DHT22;1528;52.550;13.408;2024-01-30T07:33:07;5.30;26.80
3037;DHT22;1528;52.550;13.408;2024-01-30T07:35:53;5.30;26.70
3037;DHT22;1528;52.550;13.408;2024-01-30T07:38:40;5.40;26.70
3037;DHT22;1528;52.550;13.408;2024-01-30T07:41:25;5.40;26.60
3037;DHT22;1528;52.550;13.408;2024-01-30T07:44:11;5.50;26.60
3037;DHT22;1528;52.550;13.408;2024-01-30T07:46:56;5.50;26.40
3037;DHT22;1528;52.550;13.408;2024-01-30T07:49:43;5.60;26.30
3037;DHT22;1528;52.550;13.408;2024-01-30T07:52:29;5.70;26.40
3037;DHT22;1528;52.550;13.408;2024-01-30T07:55:16;5.70;26.60
3037;DHT22;1528;52.550;13.408;2024-01-30T08:01:44;5.90;25.70
3037;DHT22;1528;52.550;13.408;2024-01-30T08:04:30;6.00;25.40
3037;DHT22;1528;52.550;13.408;2024-01-30T08:07:16;6.00;25.20
3037;DHT22;1528;52.550;13.408;2024-01-30T08:10:01;6.00;25.20
3037;DHT22;1528;52.550;13.408;2024-01-30T08:12:49;6.10;25.10
3037;DHT22;1528;52.550;13.408;2024-01-30T08:15:34;6.10;25.10
3037;DHT22;1528;52.550;13.408;2024-01-30T08:18:20;6.20;25.20
3037;DHT22;1528;52.550;13.408;2024-01-30T08:21:05;6.30;25.00
3037;DHT22;1528;52.550;13.408;2024-01-30T08:23:51;6.30;24.80
3037;DHT22;1528;52.550;13.408;2024-01-30T08:26:36;6.30;24.60
3037;DHT22;1528;52.550;13.408;2024-01-30T08:29:24;6.40;24.60
3037;DHT22;1528;52.550;13.408;2024-01-30T08:32:09;6.40;24.50
3037;DHT22;1528;52.550;13.408;2024-01-30T08:34:55;6.50;24.40
3037;DHT22;1528;52.550;13.408;2024-01-30T08:37:40;6.50;24.40
3037;DHT22;1528;52.550;13.408;2024-01-30T08:40:26;6.50;24.30
3037;DHT22;1528;52.550;13.408;2024-01-30T08:43:11;6.50;24.20
3037;DHT22;1528;52.550;13.408;2024-01-30T08:46:00;6.50;24.10
3037;DHT22;1528;52.550;13.408;2024-01-30T08:48:46;6.50;24.20
3037;DHT22;1528;52.550;13.408;2024-01-30T08:51:32;6.60;24.00
3037;DHT22;1528;52.550;13.408;2024-01-30T08:54:18;6.70;23.90
3037;DHT22;1528;52.550;13.408;2024-01-30T08:57:04;6.80;24.00
3037;DHT22;1528;52.550;13.408;2024-01-30T08:59:50;6.90;23.80
3037;DHT22;1528;52.550;13.408;2024-01-30T09:02:37;7.00;23.60
3037;DHT22;1528;52.550;13.408;2024-01-30T09:05:22;7.10;23.80
3037;DHT22;1528;52.550;13.408;2024-01-30T09:08:08;7.10;23.10
3037;DHT22;1528;52.550;13.408;2024-01-30T09:10:54;7.20;22.80
3037;DHT22;1528;52.550;13.408;2024-01-30T09:13:40;7.30;22.80
3037;DHT22;1528;52.550;13.408;2024-01-30T09:16:27;7.30;22.50
3037;DHT22;1528;52.550;13.408;2024-01-30T09:19:14;7.40;22.50
3037;DHT22;1528;52.550;13.408;2024-01-30T09:21:59;7.40;22.30
3037;DHT22;1528;52.550;13.408;2024-01-30T09:24:45;7.50;22.30
3037;DHT22;1528;52.550;13.408;2024-01-30T09:27:31;7.60;22.30
3037;DHT22;1528;52.550;13.408;2024-01-30T09:30:17;7.60;22.70
3037;DHT22;1528;52.550;13.408;2024-01-30T09:33:03;7.60;22.00
3037;DHT22;1528;52.550;13.408;2024-01-30T09:35:50;7.70;22.00
3037;DHT22;1528;52.550;13.408;2024-01-30T09:38:36;7.80;22.10
3037;DHT22;1528;52.550;13.408;2024-01-30T09:41:24;7.90;22.20
3037;DHT22;1528;52.550;13.408;2024-01-30T09:44:10;7.90;21.70
3037;DHT22;1528;52.550;13.408;2024-01-30T09:47:00;8.00;21.60
3037;DHT22;1528;52.550;13.408;2024-01-30T09:49:48;8.10;21.50
3037;DHT22;1528;52.550;13.408;2024-01-30T09:52:35;8.10;21.40
3037;DHT22;1528;52.550;13.408;2024-01-30T09:55:21;8.20;21.30
3037;DHT22;1528;52.550;13.408;2024-01-30T09:58:07;8.20;21.20
3037;DHT22;1528;52.550;13.408;2024-01-30T10:00:53;8.30;21.10
3037;DHT22;1528;52.550;13.408;2024-01-30T10:03:39;8.40;21.20
3037;DHT22;1528;52.550;13.408;2024-01-30T10:06:25;8.50;20.60
3037;DHT22;1528;52.550;13.408;2024-01-30T10:09:11;8.60;20.50
3037;DHT22;1528;52.550;13.408;2024-01-30T10:11:57;8.90;20.20
3037;DHT22;1528;52.550;13.408;2024-01-30T10:14:43;8.90;20.00
3037;DHT22;1528;52.550;13.408;2024-01-30T10:17:29;8.90;19.80
3037;DHT22;1528;52.550;13.408;2024-01-30T10:20:14;9.00;19.40
3037;DHT22;1528;52.550;13.408;2024-01-30T10:23:02;9.10;19.10
3037;DHT22;1528;52.550;13.408;2024-01-30T10:25:51;9.10;19.10
3037;DHT22;1528;52.550;13.408;2024-01-30T10:28:36;9.30;18.70
3037;DHT22;1528;52.550;13.408;2024-01-30T10:31:22;9.20;18.40
3037;DHT22;1528;52.550;13.408;2024-01-30T10:34:08;9.30;18.50
3037;DHT22;1528;52.550;13.408;2024-01-30T10:36:59;9.30;18.10
3037;DHT22;1528;52.550;13.408;2024-01-30T10:39:46;9.30;17.90
3037;DHT22;1528;52.550;13.408;2024-01-30T10:42:36;9.30;17.60
3037;DHT22;1528;52.550;13.408;2024-01-30T10:45:22;9.30;17.40
3037;DHT22;1528;52.550;13.408;2024-01-30T10:48:09;9.30;17.20
3037;DHT22;1528;52.550;13.408;2024-01-30T10:50:58;9.30;17.40
3037;DHT22;1528;52.550;13.408;2024-01-30T10:53:46;9.40;17.10
3037;DHT22;1528;52.550;13.408;2024-01-30T10:56:33;9.40;17.20
3037;DHT22;1528;52.550;13.408;2024-01-30T10:59:23;9.40;17.20
3037;DHT22;1528;52.550;13.408;2024-01-30T11:02:10;9.50;17.10
3037;DHT22;1528;52.550;13.408;2024-01-30T11:04:57;9.50;17.00
3037;DHT22;1528;52.550;13.408;2024-01-30T11:07:43;9.60;17.10
3037;DHT22;1528;52.550;13.408;2024-01-30T11:10:29;9.60;16.90
3037;DHT22;1528;52.550;13.408;2024-01-30T11:13:15;9.60;16.90
3037;DHT22;1528;52.550;13.408;2024-01-30T11:16:03;9.60;16.90
3037;DHT22;1528;52.550;13.408;2024-01-30T11:18:50;9.70;16.90
3037;DHT22;1528;52.550;13.408;2024-01-30T11:21:41;9.70;16.90
3037;DHT22;1528;52.550;13.408;2024-01-30T11:24:27;9.70;16.70
3037;DHT22;1528;52.550;13.408;2024-01-30T11:27:13;9.70;16.90
3037;DHT22;1528;52.550;13.408;2024-01-30T11:30:01;9.60;16.90
3037;DHT22;1528;52.550;13.408;2024-01-30T11:33:00;9.60;17.00
3037;DHT22;1528;52.550;13.408;2024-01-30T11:35:45;9.60;16.90
3037;DHT22;1528;52.550;13.408;2024-01-30T11:38:31;9.60;17.10
3037;DHT22;1528;52.550;13.408;2024-01-30T11:41:17;9.50;17.10
3037;DHT22;1528;52.550;13.408;2024-01-30T11:44:04;9.60;17.30
3037;DHT22;1528;52.550;13.408;2024-01-30T11:46:51;9.60;17.40
3037;DHT22;1528;52.550;13.408;2024-01-30T11:49:37;9.70;17.40
3037;DHT22;1528;52.550;13.408;2024-01-30T11:52:24;9.80;17.20
3037;DHT22;1528;52.550;13.408;2024-01-30T11:55:10;9.80;17.10
3037;DHT22;1528;52.550;13.408;2024-01-30T11:57:55;9.90;17.10
3037;DHT22;1528;52.550;13.408;2024-01-30T12:00:41;10.00;16.40
3037;DHT22;1528;52.550;13.408;2024-01-30T12:03:26;10.10;16.30
3037;DHT22;1528;52.550;13.408;2024-01-30T12:06:15;10.30;16.30
3037;DHT22;1528;52.550;13.408;2024-01-30T12:09:02;10.20;16.30
3037;DHT22;1528;52.550;13.408;2024-01-30T12:11:49;10.20;16.50
3037;DHT22;1528;52.550;13.408;2024-01-30T12:14:35;10.30;16.00
3037;DHT22;1528;52.550;13.408;2024-01-30T12:17:26;10.30;15.90
3037;DHT22;1528;52.550;13.408;2024-01-30T12:20:13;10.40;15.90
3037;DHT22;1528;52.550;13.408;2024-01-30T12:23:00;10.40;15.90
3037;DHT22;1528;52.550;13.408;2024-01-30T12:25:46;10.50;16.00
3037;DHT22;1528;52.550;13.408;2024-01-30T12:28:32;10.50;16.00
3037;DHT22;1528;52.550;13.408;2024-01-30T12:31:17;10.50;16.50
3037;DHT22;1528;52.550;13.408;2024-01-30T12:34:03;10.50;16.00
3037;DHT22;1528;52.550;13.408;2024-01-30T12:36:49;10.50;16.00
3037;DHT22;1528;52.550;13.408;2024-01-30T12:39:36;10.50;16.30
3037;DHT22;1528;52.550;13.408;2024-01-30T12:42:21;10.50;16.30
3037;DHT22;1528;52.550;13.408;2024-01-30T12:45:08;10.40;16.40
3037;DHT22;1528;52.550;13.408;2024-01-30T12:47:53;10.40;16.60
3037;DHT22;1528;52.550;13.408;2024-01-30T12:50:39;10.40;16.40
3037;DHT22;1528;52.550;13.408;2024-01-30T12:53:24;10.30;16.40
3037;DHT22;1528;52.550;13.408;2024-01-30T12:56:12;10.30;16.60
3037;DHT22;1528;52.550;13.408;2024-01-30T12:58:57;10.20;17.40
3037;DHT22;1528;52.550;13.408;2024-01-30T13:01:43;10.20;17.00
3037;DHT22;1528;52.550;13.408;2024-01-30T13:04:29;10.20;17.10
3037;DHT22;1528;52.550;13.408;2024-01-30T13:07:14;10.20;17.20
3037;DHT22;1528;52.550;13.408;2024-01-30T13:09:59;10.20;17.30
3037;DHT22;1528;52.550;13.408;2024-01-30T13:12:48;10.20;17.50
3037;DHT22;1528;52.550;13.408;2024-01-30T13:15:34;10.20;17.60
3037;DHT22;1528;52.550;13.408;2024-01-30T13:18:19;10.10;17.70
3037;DHT22;1528;52.550;13.408;2024-01-30T13:21:05;10.10;17.70
3037;DHT22;1528;52.550;13.408;2024-01-30T13:23:51;10.10;18.40
3037;DHT22;1528;52.550;13.408;2024-01-30T13:26:38;10.10;18.10
3037;DHT22;1528;52.550;13.408;2024-01-30T13:29:25;10.00;18.20
3037;DHT22;1528;52.550;13.408;2024-01-30T13:32:11;10.00;18.30
3037;DHT22;1528;52.550;13.408;2024-01-30T13:34:56;10.00;18.40
3037;DHT22;1528;52.550;13.408;2024-01-30T13:37:42;10.00;18.40
3037;DHT22;1528;52.550;13.408;2024-01-30T13:40:28;10.00;18.60
3037;DHT22;1528;52.550;13.408;2024-01-30T13:43:13;10.00;18.60
3037;DHT22;1528;52.550;13.408;2024-01-30T13:46:01;10.10;18.80
3037;DHT22;1528;52.550;13.408;2024-01-30T13:48:47;10.10;18.90
3037;DHT22;1528;52.550;13.408;2024-01-30T13:51:33;10.10;18.90
3037;DHT22;1528;52.550;13.408;2024-01-30T13:54:19;10.20;18.90
3037;DHT22;1528;52.550;13.408;2024-01-30T13:57:05;10.20;18.90
3037;DHT22;1528;52.550;13.408;2024-01-30T13:59:50;10.20;18.90
3037;DHT22;1528;52.550;13.408;2024-01-30T14:02:37;10.20;19.00
3037;DHT22;1528;52.550;13.408;2024-01-30T14:05:23;10.30;19.00
3037;DHT22;1528;52.550;13.408;2024-01-30T14:08:09;10.20;19.00
3037;DHT22;1528;52.550;13.408;2024-01-30T14:10:55;10.20;19.40
3037;DHT22;1528;52.550;13.408;2024-01-30T14:13:41;10.10;19.20
3037;DHT22;1528;52.550;13.408;2024-01-30T14:16:26;10.10;19.20
3037;DHT22;1528;52.550;13.408;2024-01-30T14:19:14;10.10;19.30
3037;DHT22;1528;52.550;13.408;2024-01-30T14:21:59;10.10;19.40
3037;DHT22;1528;52.550;13.408;2024-01-30T14:24:45;10.10;19.50
3037;DHT22;1528;52.550;13.408;2024-01-30T14:27:31;10.10;19.60
3037;DHT22;1528;52.550;13.408;2024-01-30T14:30:17;10.10;19.70
3037;DHT22;1528;52.550;13.408;2024-01-30T14:33:03;10.10;19.80
3037;DHT22;1528;52.550;13.408;2024-01-30T14:35:50;10.10;19.90
3037;DHT22;1528;52.550;13.408;2024-01-30T14:38:36;10.10;20.00
3037;DHT22;1528;52.550;13.408;2024-01-30T14:41:22;10.10;20.00
3037;DHT22;1528;52.550;13.408;2024-01-30T14:44:07;10.30;20.10
3037;DHT22;1528;52.550;13.408;2024-01-30T14:46:53;10.10;20.10
3037;DHT22;1528;52.550;13.408;2024-01-30T14:49:39;10.10;20.20
3037;DHT22;1528;52.550;13.408;2024-01-30T14:52:26;10.10;20.20
3037;DHT22;1528;52.550;13.408;2024-01-30T14:55:11;10.10;20.40
3037;DHT22;1528;52.550;13.408;2024-01-30T14:57:57;10.10;20.50
3037;DHT22;1528;52.550;13.408;2024-01-30T15:03:24;10.10;20.70
3037;DHT22;1528;52.550;13.408;2024-01-30T15:06:09;10.00;20.60
3037;DHT22;1528;52.550;13.408;2024-01-30T15:08:56;10.00;20.80
3037;DHT22;1528;52.550;13.408;2024-01-30T15:11:43;10.00;20.90
3037;DHT22;1528;52.550;13.408;2024-01-30T15:14:29;9.90;21.70
3037;DHT22;1528;52.550;13.408;2024-01-30T15:17:14;10.00;21.10
3037;DHT22;1528;52.550;13.408;2024-01-30T15:20:00;9.90;21.90
3037;DHT22;1528;52.550;13.408;2024-01-30T15:22:48;9.90;22.00
3037;DHT22;1528;52.550;13.408;2024-01-30T15:25:34;9.80;22.10
3037;DHT22;1528;52.550;13.408;2024-01-30T15:28:33;9.80;22.20
3037;DHT22;1528;52.550;13.408;2024-01-30T15:31:19;9.80;22.30
3037;DHT22;1528;52.550;13.408;2024-01-30T15:34:04;9.70;22.40
3037;DHT22;1528;52.550;13.408;2024-01-30T15:36:50;9.70;22.50
3037;DHT22;1528;52.550;13.408;2024-01-30T15:39:36;9.70;22.60
3037;DHT22;1528;52.550;13.408;2024-01-30T15:42:23;9.70;22.70
3037;DHT22;1528;52.550;13.408;2024-01-30T15:45:08;9.70;22.80
3037;DHT22;1528;52.550;13.408;2024-01-30T15:47:53;9.70;22.90
3037;DHT22;1528;52.550;13.408;2024-01-30T15:50:39;9.60;23.00
3037;DHT22;1528;52.550;13.408;2024-01-30T15:53:26;9.60;23.10
3037;DHT22;1528;52.550;13.408;2024-01-30T15:56:12;9.60;23.30
3037;DHT22;1528;52.550;13.408;2024-01-30T15:58:59;9.60;23.30
3037;DHT22;1528;52.550;13.408;2024-01-30T16:01:45;9.60;23.40
3037;DHT22;1528;52.550;13.408;2024-01-30T16:04:33;9.50;23.50
3037;DHT22;1528;52.550;13.408;2024-01-30T16:07:18;9.50;23.50
3037;DHT22;1528;52.550;13.408;2024-01-30T16:10:05;9.50;23.50
3037;DHT22;1528;52.550;13.408;2024-01-30T16:12:50;9.40;23.50
3037;DHT22;1528;52.550;13.408;2024-01-30T16:15:38;9.40;23.60
3037;DHT22;1528;52.550;13.408;2024-01-30T16:18:24;9.40;23.80
3037;DHT22;1528;52.550;13.408;2024-01-30T16:21:10;9.40;23.90
3037;DHT22;1528;52.550;13.408;2024-01-30T16:23:58;9.40;23.90
3037;DHT22;1528;52.550;13.408;2024-01-30T16:26:43;9.40;24.00
3037;DHT22;1528;52.550;13.408;2024-01-30T16:29:29;9.30;24.10
3037;DHT22;1528;52.550;13.408;2024-01-30T16:32:16;9.30;24.10
3037;DHT22;1528;52.550;13.408;2024-01-30T16:35:02;9.30;24.20
3037;DHT22;1528;52.550;13.408;2024-01-30T16:37:48;9.40;24.30
3037;DHT22;1528;52.550;13.408;2024-01-30T16:40:34;9.30;24.30
3037;DHT22;1528;52.550;13.408;2024-01-30T16:43:19;9.40;24.40
3037;DHT22;1528;52.550;13.408;2024-01-30T16:46:05;9.40;24.40
3037;DHT22;1528;52.550;13.408;2024-01-30T16:48:52;9.40;24.50
3037;DHT22;1528;52.550;13.408;2024-01-30T16:51:38;9.40;24.50
3037;DHT22;1528;52.550;13.408;2024-01-30T16:54:23;9.40;24.60
3037;DHT22;1528;52.550;13.408;2024-01-30T16:57:09;9.40;24.60
3037;DHT22;1528;52.550;13.408;2024-01-30T16:59:55;9.40;24.70
3037;DHT22;1528;52.550;13.408;2024-01-30T17:02:40;9.40;24.80
3037;DHT22;1528;52.550;13.408;2024-01-30T17:05:27;9.40;24.80
3037;DHT22;1528;52.550;13.408;2024-01-30T17:08:12;9.40;25.50
3037;DHT22;1528;52.550;13.408;2024-01-30T17:10:58;9.40;25.10
3037;DHT22;1528;52.550;13.408;2024-01-30T17:13:44;9.40;25.10
3037;DHT22;1528;52.550;13.408;2024-01-30T17:16:29;9.40;25.10
3037;DHT22;1528;52.550;13.408;2024-01-30T17:19:15;9.40;25.10
3037;DHT22;1528;52.550;13.408;2024-01-30T17:22:02;9.40;25.20
3037;DHT22;1528;52.550;13.408;2024-01-30T17:24:50;9.40;25.20
3037;DHT22;1528;52.550;13.408;2024-01-30T17:27:36;9.40;25.30
3037;DHT22;1528;52.550;13.408;2024-01-30T17:30:22;9.40;25.30
3037;DHT22;1528;52.550;13.408;2024-01-30T17:33:07;9.40;25.50
3037;DHT22;1528;52.550;13.408;2024-01-30T17:35:53;9.50;25.70
3037;DHT22;1528;52.550;13.408;2024-01-30T17:38:40;9.50;25.60
3037;DHT22;1528;52.550;13.408;2024-01-30T17:41:25;9.50;25.70
3037;DHT22;1528;52.550;13.408;2024-01-30T17:44:11;9.50;25.90
3037;DHT22;1528;52.550;13.408;2024-01-30T17:46:57;9.50;26.00
3037;DHT22;1528;52.550;13.408;2024-01-30T17:49:43;9.60;26.10
3037;DHT22;1528;52.550;13.408;2024-01-30T17:52:29;9.50;26.10
3037;DHT22;1528;52.550;13.408;2024-01-30T17:55:16;9.50;26.10
3037;DHT22;1528;52.550;13.408;2024-01-30T17:58:02;9.60;26.20
3037;DHT22;1528;52.550;13.408;2024-01-30T18:00:49;9.60;26.30
3037;DHT22;1528;52.550;13.408;2024-01-30T18:03:34;9.50;26.20
3037;DHT22;1528;52.550;13.408;2024-01-30T18:06:20;9.50;26.40
3037;DHT22;1528;52.550;13.408;2024-01-30T18:09:07;9.50;26.50